Time;durP1;ratioP1;P1;durP2;ratioP2;P2;SDS_P1;SDS_P2;PMS_P1;PMS_P2;Temp;Humidity;BMP_temperature;BMP_pressure;BME280_temperature;BME280_humidity;BME280_pressure;Samples;Min_cycle;Max_cycle;Signal;HPM_P1;HPM_P2
2023/10/31 00:01:35;;;;;;;1.83;1.63;;;22.00;59.20;;;;;;5050544;28;21050;-69
2023/10/31 00:04:00;;;;;;;2.37;1.90;;;22.00;59.20;;;;;;5050582;28;20183;-69
2023/10/31 00:06:26;;;;;;;2.67;2.10;;;22.00;59.20;;;;;;5050435;28;20205;-70
2023/10/31 00:08:52;;;;;;;2.57;2.00;;;22.00;59.20;;;;;;5049120;28;20592;-69
2023/10/31 00:11:17;;;;;;;1.73;1.57;;;22.00;59.20;;;;;;5050354;28;20205;-69
2023/10/31 00:13:43;;;;;;;2.60;2.37;;;22.00;59.10;;;;;;5050322;28;20313;-69
2023/10/31 00:16:08;;;;;;;2.43;1.70;;;22.10;59.30;;;;;;5050329;28;20272;-69
2023/10/31 00:18:34;;;;;;;1.70;1.50;;;22.10;59.20;;;;;;5050160;28;20183;-70
2023/10/31 00:21:00;;;;;;;2.57;2.00;;;22.00;59.20;;;;;;5050248;28;20597;-70
2023/10/31 00:23:25;;;;;;;1.80;1.40;;;22.00;59.20;;;;;;5050202;28;20171;-70
2023/10/31 00:25:51;;;;;;;1.90;1.73;;;22.00;59.20;;;;;;5050089;28;20452;-69
2023/10/31 00:28:17;;;;;;;3.20;2.00;;;22.00;59.20;;;;;;5050118;28;20174;-69
2023/10/31 00:30:42;;;;;;;1.90;1.80;;;22.00;59.20;;;;;;5050079;28;20178;-70
2023/10/31 00:33:08;;;;;;;2.00;1.80;;;22.00;59.20;;;;;;5050128;28;20194;-70
2023/10/31 00:35:33;;;;;;;2.20;1.73;;;22.00;59.20;;;;;;5050030;28;20189;-69
2023/10/31 00:37:59;;;;;;;2.30;1.93;;;22.00;59.20;;;;;;5050044;28;20167;-68
2023/10/31 00:40:25;;;;;;;2.97;2.07;;;22.00;59.20;;;;;;5050033;28;20178;-69
2023/10/31 00:42:50;;;;;;;2.83;2.13;;;22.10;59.30;;;;;;5049573;28;20213;-69
2023/10/31 00:45:16;;;;;;;2.20;1.70;;;22.00;59.20;;;;;;5049854;28;20218;-70
2023/10/31 00:47:41;;;;;;;2.00;1.50;;;22.00;59.20;;;;;;5049926;28;20175;-70
2023/10/31 00:50:08;;;;;;;2.43;1.93;;;22.10;59.30;;;;;;5049859;28;20207;-70
2023/10/31 00:52:34;;;;;;;2.40;1.67;;;22.00;59.20;;;;;;5048415;28;20207;-70
2023/10/31 00:55:00;;;;;;;1.93;1.80;;;22.00;59.20;;;;;;5049714;28;20443;-70
2023/10/31 00:57:25;;;;;;;1.57;1.37;;;22.00;59.20;;;;;;5049789;28;20224;-69
2023/10/31 00:59:51;;;;;;;2.43;2.03;;;22.00;59.20;;;;;;5049793;28;20709;-69
2023/10/31 01:02:16;;;;;;;2.67;1.80;;;22.00;59.20;;;;;;5049847;28;20175;-69
2023/10/31 01:04:42;;;;;;;1.87;1.73;;;22.10;59.30;;;;;;5049690;28;20665;-70
2023/10/31 01:07:11;;;;;;;2.00;1.73;;;22.00;59.20;;;;;;5049710;28;20265;-70
2023/10/31 01:09:37;;;;;;;1.57;1.47;;;22.00;59.20;;;;;;5049748;28;20197;-70
2023/10/31 01:12:03;;;;;;;1.70;1.53;;;22.00;59.20;;;;;;5049690;28;20448;-69
2023/10/31 01:14:28;;;;;;;2.40;1.83;;;22.00;59.20;;;;;;5048180;28;20256;-69
2023/10/31 01:16:54;;;;;;;2.27;1.90;;;22.00;59.20;;;;;;5049625;28;20171;-69
2023/10/31 01:19:19;;;;;;;1.80;1.60;;;22.10;59.30;;;;;;5049576;28;20241;-70
2023/10/31 01:21:45;;;;;;;2.20;2.00;;;22.00;59.20;;;;;;5049546;28;20189;-70
2023/10/31 01:24:10;;;;;;;2.33;1.90;;;22.00;59.20;;;;;;5049807;28;20752;-70
2023/10/31 01:26:36;;;;;;;2.00;1.80;;;22.00;59.20;;;;;;5049424;28;20203;-69
2023/10/31 01:29:02;;;;;;;1.90;1.70;;;22.10;59.30;;;;;;5048155;28;20229;-69
2023/10/31 01:31:28;;;;;;;2.93;1.90;;;22.00;59.20;;;;;;5049374;28;20248;-69
2023/10/31 01:33:53;;;;;;;1.60;1.47;;;22.00;59.20;;;;;;5049434;28;20551;-69
2023/10/31 01:36:19;;;;;;;1.77;1.67;;;22.00;59.20;;;;;;5049444;28;20433;-70
2023/10/31 01:38:46;;;;;;;3.00;2.07;;;22.10;59.30;;;;;;5049693;28;20184;-67
2023/10/31 01:41:12;;;;;;;2.47;1.60;;;22.00;59.20;;;;;;5049359;28;20171;-69
2023/10/31 01:43:38;;;;;;;1.73;1.57;;;22.00;59.20;;;;;;5049377;28;20421;-69
2023/10/31 01:46:05;;;;;;;2.17;1.83;;;22.00;59.20;;;;;;5049325;28;20430;-69
2023/10/31 01:48:32;;;;;;;1.43;1.30;;;22.10;59.30;;;;;;5049718;28;20631;-69
2023/10/31 01:50:59;;;;;;;1.97;1.73;;;22.00;59.20;;;;;;5049308;28;20502;-70
2023/10/31 01:53:29;;;;;;;1.87;1.73;;;22.00;59.20;;;;;;5049989;28;20441;-69
2023/10/31 01:55:56;;;;;;;1.80;1.53;;;22.00;59.20;;;;;;5052899;28;20418;-69
2023/10/31 01:58:28;;;;;;;1.90;1.50;;;22.00;59.20;;;;;;5053007;28;20436;-69
2023/10/31 02:00:55;;;;;;;2.77;1.33;;;22.10;59.30;;;;;;5052896;28;20417;-70
2023/10/31 02:03:20;;;;;;;1.53;1.40;;;22.10;59.30;;;;;;5052828;28;20410;-68
2023/10/31 02:05:46;;;;;;;2.23;1.37;;;22.10;59.30;;;;;;5052679;28;20809;-70
2023/10/31 02:08:12;;;;;;;2.20;1.60;;;22.00;59.20;;;;;;5052730;28;20179;-69
2023/10/31 02:10:37;;;;;;;2.20;1.70;;;22.00;59.20;;;;;;5052688;28;20179;-70
2023/10/31 02:13:16;;;;;;;2.03;1.70;;;22.00;59.20;;;;;;5052650;28;20175;-67
2023/10/31 02:15:42;;;;;;;2.43;1.53;;;22.00;59.20;;;;;;5052541;28;20231;-69
2023/10/31 02:18:08;;;;;;;1.87;1.30;;;22.00;59.20;;;;;;5052573;28;20516;-70
2023/10/31 02:20:34;;;;;;;1.60;1.50;;;22.00;59.20;;;;;;5047511;28;20178;-70
2023/10/31 02:23:00;;;;;;;1.70;1.40;;;22.00;59.20;;;;;;5050401;28;20499;-70
2023/10/31 02:25:26;;;;;;;2.33;1.50;;;22.00;59.20;;;;;;5051445;28;20809;-69
2023/10/31 02:27:51;;;;;;;1.60;1.50;;;22.00;59.20;;;;;;5051258;28;20717;-69
2023/10/31 02:30:17;;;;;;;2.20;1.60;;;22.00;59.20;;;;;;5052308;28;20174;-68
2023/10/31 02:32:43;;;;;;;2.57;1.80;;;22.00;59.20;;;;;;5052042;28;20861;-69
2023/10/31 02:35:09;;;;;;;1.77;1.67;;;22.00;59.70;;;;;;5052196;28;20187;-69
2023/10/31 02:37:34;;;;;;;2.00;1.60;;;22.00;59.20;;;;;;5050844;28;20786;-70
2023/10/31 02:40:00;;;;;;;2.10;1.90;;;22.00;59.20;;;;;;5052233;28;20199;-69
2023/10/31 02:42:27;;;;;;;2.07;1.73;;;22.00;59.20;;;;;;5052172;28;20179;-69
2023/10/31 02:44:53;;;;;;;1.90;1.70;;;22.00;59.20;;;;;;5052129;28;20936;-70
2023/10/31 02:47:19;;;;;;;1.97;1.50;;;22.10;59.30;;;;;;5052137;28;20924;-69
2023/10/31 02:49:44;;;;;;;1.77;1.47;;;22.00;59.20;;;;;;5052008;28;20455;-69
2023/10/31 02:52:10;;;;;;;2.23;1.80;;;22.00;59.20;;;;;;5052055;28;20266;-69
2023/10/31 02:54:36;;;;;;;1.73;1.60;;;22.10;59.30;;;;;;5051907;28;20646;-69
2023/10/31 02:57:02;;;;;;;1.47;1.37;;;22.10;59.30;;;;;;5051932;28;20198;-70
2023/10/31 02:59:28;;;;;;;2.00;1.80;;;22.00;59.20;;;;;;5051886;28;20884;-69
2023/10/31 03:01:55;;;;;;;1.90;1.70;;;22.00;59.80;;;;;;5051793;28;20453;-68
2023/10/31 03:04:21;;;;;;;3.60;1.97;;;22.00;59.20;;;;;;5051732;28;20197;-70
2023/10/31 03:06:46;;;;;;;1.73;1.63;;;22.00;59.20;;;;;;5051162;28;20421;-70
2023/10/31 03:09:12;;;;;;;4.27;1.60;;;22.00;59.20;;;;;;5051687;28;20183;-68
2023/10/31 03:11:37;;;;;;;2.80;1.90;;;22.00;59.20;;;;;;5051576;28;20199;-70
2023/10/31 03:14:03;;;;;;;1.77;1.50;;;22.10;59.30;;;;;;5051674;28;20225;-69
2023/10/31 03:16:29;;;;;;;3.93;1.73;;;22.00;59.20;;;;;;5051463;28;20195;-70
2023/10/31 03:18:54;;;;;;;3.00;1.60;;;22.00;59.20;;;;;;5051380;28;20187;-69
2023/10/31 03:21:20;;;;;;;2.07;1.53;;;22.00;59.20;;;;;;5051763;28;20186;-69
2023/10/31 03:23:50;;;;;;;1.83;1.60;;;22.00;59.20;;;;;;5051346;28;20899;-69
2023/10/31 03:26:16;;;;;;;1.50;1.30;;;22.00;59.20;;;;;;5051633;28;20202;-69
2023/10/31 03:28:44;;;;;;;1.40;1.30;;;22.00;59.20;;;;;;5051326;28;20417;-68
2023/10/31 03:31:10;;;;;;;1.90;1.70;;;22.00;59.20;;;;;;5051244;28;20503;-69
2023/10/31 03:33:36;;;;;;;2.03;1.57;;;22.00;59.20;;;;;;5051245;28;20780;-69
2023/10/31 03:36:01;;;;;;;1.70;1.40;;;22.00;59.20;;;;;;5051364;28;20521;-70
2023/10/31 03:38:27;;;;;;;1.73;1.60;;;22.00;59.20;;;;;;5051371;28;20590;-70
2023/10/31 03:40:53;;;;;;;1.50;1.40;;;22.00;59.20;;;;;;5051098;28;20658;-69
2023/10/31 03:43:19;;;;;;;1.73;1.53;;;22.00;59.20;;;;;;5051055;28;20221;-69
2023/10/31 03:45:47;;;;;;;2.00;1.50;;;22.00;59.20;;;;;;5050916;28;21003;-69
2023/10/31 03:48:13;;;;;;;1.70;1.30;;;22.00;59.20;;;;;;5050892;28;20794;-69
2023/10/31 03:50:38;;;;;;;1.60;1.40;;;22.00;59.20;;;;;;5050860;28;20406;-70
2023/10/31 03:53:04;;;;;;;1.77;1.57;;;22.00;59.20;;;;;;5049854;28;20258;-70
2023/10/31 03:55:32;;;;;;;1.67;1.57;;;22.00;59.20;;;;;;5050717;28;20195;-69
2023/10/31 03:57:58;;;;;;;1.87;1.67;;;22.00;59.20;;;;;;5050758;28;20178;-69
2023/10/31 04:00:24;;;;;;;1.60;1.43;;;22.00;59.20;;;;;;5050684;28;20410;-71
2023/10/31 04:02:49;;;;;;;1.50;1.40;;;22.00;59.20;;;;;;5050952;28;20206;-70
2023/10/31 04:05:15;;;;;;;2.00;1.80;;;22.00;59.20;;;;;;5050610;28;20673;-69
2023/10/31 04:07:41;;;;;;;1.63;1.53;;;22.00;59.20;;;;;;5050590;28;20221;-69
2023/10/31 04:10:07;;;;;;;1.63;1.50;;;22.00;59.20;;;;;;5049413;28;20186;-69
2023/10/31 04:12:33;;;;;;;2.13;1.77;;;22.00;59.20;;;;;;5050560;28;20202;-69
2023/10/31 04:14:59;;;;;;;2.23;1.30;;;22.00;59.20;;;;;;5050431;28;20425;-70
2023/10/31 04:17:25;;;;;;;1.90;1.33;;;22.00;59.20;;;;;;5049452;28;20410;-69
2023/10/31 04:19:50;;;;;;;2.07;1.60;;;22.00;59.20;;;;;;5050510;28;20155;-69
2023/10/31 04:22:16;;;;;;;1.90;1.40;;;22.00;59.20;;;;;;5050364;28;20171;-69
2023/10/31 04:24:41;;;;;;;2.13;1.60;;;22.00;59.20;;;;;;5050364;28;20202;-69
2023/10/31 04:27:07;;;;;;;1.57;1.30;;;22.00;59.20;;;;;;5050315;28;20528;-69
2023/10/31 04:29:33;;;;;;;2.07;1.30;;;22.00;59.20;;;;;;5050317;28;20254;-70
2023/10/31 04:31:58;;;;;;;1.40;1.30;;;22.00;59.20;;;;;;5050132;28;20201;-70
2023/10/31 04:34:24;;;;;;;2.17;1.47;;;22.00;59.20;;;;;;5050114;28;20171;-69
2023/10/31 04:36:49;;;;;;;2.10;1.67;;;22.00;59.20;;;;;;5050177;28;20205;-70
2023/10/31 04:39:15;;;;;;;1.80;1.40;;;22.00;59.20;;;;;;5050058;28;20224;-70
2023/10/31 04:41:41;;;;;;;2.10;1.60;;;22.00;59.20;;;;;;5050110;28;20882;-69
2023/10/31 04:44:06;;;;;;;1.70;1.40;;;22.00;59.20;;;;;;5050071;28;20183;-69
2023/10/31 04:46:32;;;;;;;1.50;1.40;;;22.00;59.20;;;;;;5049959;28;20571;-70
2023/10/31 04:48:57;;;;;;;1.70;1.50;;;22.00;59.20;;;;;;5050228;28;20224;-69
2023/10/31 04:51:23;;;;;;;1.30;1.10;;;22.00;59.20;;;;;;5048517;28;20198;-70
2023/10/31 04:53:49;;;;;;;1.73;1.50;;;22.00;59.20;;;;;;5049957;28;20174;-69
2023/10/31 04:56:15;;;;;;;1.40;1.13;;;22.00;59.20;;;;;;5049821;28;20187;-68
2023/10/31 04:58:44;;;;;;;1.53;1.40;;;22.00;59.20;;;;;;5050176;28;20735;-70
2023/10/31 05:01:11;;;;;;;1.70;1.37;;;22.00;59.20;;;;;;5049908;28;20414;-69
2023/10/31 05:03:37;;;;;;;2.20;1.40;;;22.00;59.20;;;;;;5049889;28;20831;-69
2023/10/31 05:06:04;;;;;;;1.70;1.40;;;22.00;59.20;;;;;;5049738;28;20437;-70
2023/10/31 05:08:30;;;;;;;1.67;1.40;;;22.00;59.10;;;;;;5049762;28;20228;-70
2023/10/31 05:10:56;;;;;;;2.20;1.30;;;22.00;59.20;;;;;;5049903;28;21229;-70
2023/10/31 05:13:22;;;;;;;1.73;1.43;;;22.00;59.10;;;;;;5049771;28;20451;-68
2023/10/31 05:15:48;;;;;;;2.17;1.20;;;22.00;59.10;;;;;;5049912;28;20448;-70
2023/10/31 05:18:13;;;;;;;1.60;1.50;;;22.00;59.10;;;;;;5049699;28;20179;-70
2023/10/31 05:20:39;;;;;;;1.83;1.57;;;22.00;59.10;;;;;;5049600;28;20563;-70
2023/10/31 05:23:05;;;;;;;1.53;1.37;;;22.00;59.10;;;;;;5049859;28;20190;-70
2023/10/31 05:25:31;;;;;;;1.47;1.33;;;22.00;59.10;;;;;;5049527;28;20441;-68
2023/10/31 05:27:56;;;;;;;1.70;1.43;;;22.00;59.10;;;;;;5049596;28;20175;-68
2023/10/31 05:30:22;;;;;;;1.97;1.77;;;22.00;59.20;;;;;;5053489;28;20178;-67
2023/10/31 05:32:49;;;;;;;1.50;1.40;;;22.00;59.20;;;;;;5053358;28;20195;-67
2023/10/31 05:35:15;;;;;;;1.90;1.30;;;22.00;59.20;;;;;;5053500;28;20194;-69
2023/10/31 05:37:40;;;;;;;1.50;1.40;;;22.00;59.20;;;;;;5053314;28;21169;-70
2023/10/31 05:40:06;;;;;;;1.63;1.33;;;22.00;59.20;;;;;;5053542;28;20182;-69
2023/10/31 05:42:32;;;;;;;1.50;1.40;;;22.00;59.20;;;;;;5053183;28;20186;-69
2023/10/31 05:44:57;;;;;;;1.53;1.30;;;22.00;59.20;;;;;;5053096;28;20433;-69
2023/10/31 05:47:23;;;;;;;1.73;1.57;;;22.00;59.20;;;;;;5053168;28;20711;-68
2023/10/31 05:49:49;;;;;;;1.83;1.63;;;22.00;59.20;;;;;;5053169;28;20203;-69
2023/10/31 05:52:14;;;;;;;1.37;1.27;;;22.00;59.20;;;;;;5053306;28;20597;-69
2023/10/31 05:54:40;;;;;;;1.70;1.47;;;22.00;59.20;;;;;;5052987;28;20696;-70
2023/10/31 05:57:06;;;;;;;1.60;1.50;;;22.00;59.20;;;;;;5052929;28;20237;-70
2023/10/31 05:59:32;;;;;;;1.73;1.33;;;22.00;59.20;;;;;;5052937;28;20657;-69
2023/10/31 06:01:58;;;;;;;1.60;1.10;;;22.00;59.10;;;;;;5053219;28;20178;-69
2023/10/31 06:04:24;;;;;;;1.60;1.50;;;22.00;59.20;;;;;;5052818;28;20412;-69
2023/10/31 06:06:50;;;;;;;1.57;1.20;;;22.00;59.20;;;;;;5052844;28;20425;-69
2023/10/31 06:09:16;;;;;;;1.20;1.10;;;22.00;59.20;;;;;;5052797;28;20409;-67
2023/10/31 06:11:43;;;;;;;1.70;1.47;;;22.00;59.20;;;;;;5052700;28;20191;-69
2023/10/31 06:14:09;;;;;;;1.30;1.10;;;22.00;59.20;;;;;;5052722;28;20699;-69
2023/10/31 06:16:44;;;;;;;1.20;1.10;;;22.00;59.20;;;;;;5052478;28;20508;-70
2023/10/31 06:19:10;;;;;;;1.40;1.20;;;22.00;59.20;;;;;;5052496;28;20793;-70
2023/10/31 06:21:35;;;;;;;2.00;1.30;;;22.00;59.20;;;;;;5052884;28;20543;-70
2023/10/31 06:24:04;;;;;;;1.97;1.40;;;22.00;59.20;;;;;;5052540;28;20539;-69
2023/10/31 06:26:30;;;;;;;1.30;1.10;;;22.00;59.20;;;;;;5052397;28;20191;-70
2023/10/31 06:28:56;;;;;;;2.30;1.43;;;22.00;59.20;;;;;;5052319;28;20413;-70
2023/10/31 06:31:22;;;;;;;1.50;1.23;;;22.00;59.20;;;;;;5052269;28;20453;-68
2023/10/31 06:33:47;;;;;;;1.60;1.40;;;22.00;59.20;;;;;;5052309;28;20175;-69
2023/10/31 06:36:13;;;;;;;2.17;1.40;;;22.00;59.20;;;;;;5052433;28;20582;-69
2023/10/31 06:38:38;;;;;;;1.73;1.60;;;22.00;59.20;;;;;;5052228;28;20167;-68
2023/10/31 06:41:04;;;;;;;2.13;1.77;;;22.00;59.20;;;;;;5051312;28;20175;-69
2023/10/31 06:43:30;;;;;;;1.80;1.70;;;22.00;59.20;;;;;;5052093;28;20725;-70
2023/10/31 06:45:56;;;;;;;1.40;1.10;;;22.00;59.20;;;;;;5051990;28;20244;-70
2023/10/31 06:48:22;;;;;;;1.67;1.50;;;22.00;59.20;;;;;;5052252;28;20187;-68
2023/10/31 06:50:48;;;;;;;1.20;1.10;;;22.00;59.20;;;;;;5051868;28;20500;-69
2023/10/31 06:53:14;;;;;;;1.60;1.40;;;22.00;59.10;;;;;;5051982;28;20179;-70
2023/10/31 06:55:39;;;;;;;1.37;1.20;;;22.00;59.20;;;;;;5051805;28;20436;-69
2023/10/31 06:58:05;;;;;;;1.47;1.20;;;22.00;59.20;;;;;;5051803;28;20646;-68
2023/10/31 07:00:31;;;;;;;2.00;1.23;;;22.00;59.20;;;;;;5051768;28;20183;-69
2023/10/31 07:02:58;;;;;;;1.30;1.20;;;22.00;59.10;;;;;;5051805;28;20205;-70
2023/10/31 07:05:24;;;;;;;1.40;1.00;;;22.00;59.10;;;;;;5051912;28;20199;-69
2023/10/31 07:07:50;;;;;;;1.50;1.40;;;22.00;59.10;;;;;;5051610;28;20499;-69
2023/10/31 07:10:15;;;;;;;1.30;1.00;;;22.00;59.20;;;;;;5051534;28;20467;-69
2023/10/31 07:12:41;;;;;;;1.60;1.10;;;22.00;59.20;;;;;;5051562;28;20206;-70
2023/10/31 07:15:07;;;;;;;1.70;1.30;;;22.00;59.20;;;;;;5051424;28;20199;-69
2023/10/31 07:17:33;;;;;;;1.30;1.00;;;22.00;59.20;;;;;;5051339;28;20217;-70
2023/10/31 07:19:58;;;;;;;2.20;1.63;;;22.00;59.20;;;;;;5051498;28;20425;-69
2023/10/31 07:22:24;;;;;;;1.30;1.20;;;22.00;59.20;;;;;;5051359;28;20604;-69
2023/10/31 07:24:51;;;;;;;1.63;1.27;;;22.00;59.20;;;;;;5051272;28;20297;-69
2023/10/31 07:27:17;;;;;;;1.40;1.10;;;22.00;59.20;;;;;;5050034;28;20802;-70
2023/10/31 07:29:43;;;;;;;1.20;1.10;;;22.00;59.70;;;;;;5051266;28;20908;-69
2023/10/31 07:32:09;;;;;;;1.40;1.30;;;22.00;59.20;;;;;;5051112;28;20488;-68
2023/10/31 07:34:35;;;;;;;1.57;1.47;;;22.00;59.20;;;;;;5051120;28;20520;-70
2023/10/31 07:37:00;;;;;;;1.57;1.47;;;22.00;59.20;;;;;;5051094;28;20424;-69
2023/10/31 07:39:26;;;;;;;1.33;1.23;;;22.00;59.20;;;;;;5051040;28;20179;-70
2023/10/31 07:41:52;;;;;;;2.13;1.17;;;22.00;59.20;;;;;;5051044;28;20179;-70
2023/10/31 07:44:17;;;;;;;1.30;1.20;;;22.00;59.20;;;;;;5050988;28;20244;-70
2023/10/31 07:46:43;;;;;;;1.87;1.20;;;22.00;59.10;;;;;;5050896;28;20199;-69
2023/10/31 07:49:08;;;;;;;1.50;1.10;;;22.00;59.10;;;;;;5050959;28;20715;-69
2023/10/31 07:51:34;;;;;;;2.33;1.40;;;22.00;59.10;;;;;;5050620;28;20202;-67
2023/10/31 07:54:00;;;;;;;1.10;1.00;;;22.00;59.20;;;;;;5050803;28;20277;-70
2023/10/31 07:56:26;;;;;;;1.43;1.33;;;22.00;59.10;;;;;;5050822;28;20187;-70
2023/10/31 07:58:52;;;;;;;1.27;1.17;;;22.00;59.20;;;;;;5050765;28;20424;-70
2023/10/31 08:01:18;;;;;;;1.40;1.27;;;22.00;59.10;;;;;;5050670;28;20237;-70
2023/10/31 08:03:45;;;;;;;1.43;1.23;;;22.00;59.10;;;;;;5050697;28;20228;-70
2023/10/31 08:06:11;;;;;;;1.90;1.47;;;22.00;59.20;;;;;;5050614;28;20527;-68
2023/10/31 08:08:37;;;;;;;1.40;1.27;;;22.00;59.40;;;;;;5049170;28;20505;-70
2023/10/31 08:11:03;;;;;;;1.27;1.13;;;22.00;59.20;;;;;;5050457;28;21013;-70
2023/10/31 08:13:29;;;;;;;1.67;1.37;;;22.00;59.10;;;;;;5050609;28;20175;-68
2023/10/31 08:15:55;;;;;;;1.60;1.10;;;22.00;59.10;;;;;;5050336;28;20425;-70
2023/10/31 08:18:23;;;;;;;1.33;1.13;;;22.00;59.10;;;;;;5050344;28;20555;-69
2023/10/31 08:20:50;;;;;;;1.30;1.10;;;22.00;59.10;;;;;;5050649;28;20259;-69
2023/10/31 08:23:17;;;;;;;1.70;1.60;;;22.00;59.80;;;;;;5050629;28;20912;-68
2023/10/31 08:25:43;;;;;;;2.13;1.20;;;22.00;59.20;;;;;;5050330;28;20890;-70
2023/10/31 08:28:09;;;;;;;1.30;1.10;;;22.00;59.20;;;;;;5050310;28;20429;-69
2023/10/31 08:30:35;;;;;;;2.30;1.33;;;22.00;59.20;;;;;;5050219;28;20414;-69
2023/10/31 08:33:00;;;;;;;1.30;1.00;;;22.00;59.20;;;;;;5050180;28;20197;-69
2023/10/31 08:35:26;;;;;;;1.33;1.20;;;22.00;59.20;;;;;;5050116;28;20442;-69
2023/10/31 08:37:52;;;;;;;1.30;1.13;;;22.00;59.20;;;;;;5050448;28;20194;-70
2023/10/31 08:40:18;;;;;;;1.40;1.10;;;22.00;59.10;;;;;;5050093;28;20250;-65
2023/10/31 08:42:44;;;;;;;1.40;1.20;;;22.00;59.10;;;;;;5050120;28;20201;-69
2023/10/31 08:45:09;;;;;;;1.20;0.90;;;22.00;59.10;;;;;;5049966;28;20213;-69
2023/10/31 08:47:35;;;;;;;2.03;1.10;;;22.00;59.10;;;;;;5050004;28;20417;-69
2023/10/31 08:50:01;;;;;;;1.30;1.20;;;22.00;59.10;;;;;;5050046;28;20175;-69
2023/10/31 08:52:26;;;;;;;1.43;1.33;;;22.00;59.10;;;;;;5049913;28;20195;-70
2023/10/31 08:54:52;;;;;;;1.10;1.00;;;22.00;59.10;;;;;;5049878;28;20194;-70
2023/10/31 08:57:17;;;;;;;2.00;1.30;;;22.00;59.10;;;;;;5050222;28;20665;-69
2023/10/31 08:59:43;;;;;;;1.30;1.10;;;22.00;59.20;;;;;;5049853;28;20175;-69
2023/10/31 09:02:09;;;;;;;1.70;1.33;;;22.00;59.10;;;;;;5049917;28;20539;-70
2023/10/31 09:04:35;;;;;;;1.43;1.33;;;22.00;59.10;;;;;;5052495;28;20254;-69
2023/10/31 09:07:00;;;;;;;1.13;1.03;;;22.00;59.10;;;;;;5054000;28;20182;-69
2023/10/31 09:09:26;;;;;;;1.90;1.10;;;22.00;59.10;;;;;;5053975;28;20417;-69
2023/10/31 09:11:52;;;;;;;1.10;1.00;;;22.00;59.10;;;;;;5053844;28;20197;-70
2023/10/31 09:14:17;;;;;;;2.03;1.03;;;22.00;59.10;;;;;;5054132;28;20409;-69
2023/10/31 09:16:43;;;;;;;1.20;1.00;;;22.00;59.10;;;;;;5054024;28;20186;-69
2023/10/31 09:19:09;;;;;;;1.30;1.00;;;22.00;59.10;;;;;;5053786;28;20190;-67
2023/10/31 09:21:34;;;;;;;1.33;1.00;;;22.00;59.20;;;;;;5053798;28;20631;-68
2023/10/31 09:24:00;;;;;;;1.20;1.10;;;22.00;59.10;;;;;;5053735;28;20927;-70
2023/10/31 09:26:26;;;;;;;2.23;1.13;;;22.00;59.20;;;;;;5053619;28;21007;-70
2023/10/31 09:28:52;;;;;;;1.93;1.43;;;22.00;59.20;;;;;;5053975;28;20488;-69
2023/10/31 09:31:17;;;;;;;1.33;1.20;;;22.00;59.20;;;;;;5053443;28;20562;-70
2023/10/31 09:33:44;;;;;;;1.97;1.40;;;22.00;59.20;;;;;;5053565;28;20174;-69
2023/10/31 09:36:10;;;;;;;1.27;1.00;;;22.00;59.20;;;;;;5053763;28;20621;-70
2023/10/31 09:38:35;;;;;;;2.17;1.43;;;22.00;59.20;;;;;;5053690;28;20432;-69
2023/10/31 09:41:01;;;;;;;1.40;1.20;;;22.00;59.20;;;;;;5053696;28;20406;-69
2023/10/31 09:43:27;;;;;;;1.40;1.00;;;22.00;59.20;;;;;;5053706;28;20163;-70
2023/10/31 09:45:53;;;;;;;1.20;1.10;;;22.00;59.20;;;;;;5053319;28;20438;-70
2023/10/31 09:48:19;;;;;;;1.13;1.00;;;22.00;59.20;;;;;;5053227;28;20179;-66
2023/10/31 09:50:47;;;;;;;1.20;1.07;;;22.00;59.20;;;;;;5053336;28;20190;-69
2023/10/31 09:53:15;;;;;;;1.20;1.07;;;22.00;59.20;;;;;;5053303;28;20405;-70
2023/10/31 09:55:42;;;;;;;1.40;1.17;;;22.00;59.20;;;;;;5053144;28;20448;-69
2023/10/31 09:58:08;;;;;;;1.40;1.10;;;22.00;59.20;;;;;;5053154;28;20772;-70
2023/10/31 10:00:36;;;;;;;1.53;1.43;;;22.10;59.30;;;;;;5053095;28;20417;-70
2023/10/31 10:03:03;;;;;;;1.30;1.20;;;22.00;59.20;;;;;;5052916;28;20448;-69
2023/10/31 10:05:31;;;;;;;1.20;0.97;;;22.10;59.20;;;;;;5051619;28;20433;-69
2023/10/31 10:07:58;;;;;;;1.27;1.00;;;22.00;59.20;;;;;;5052958;28;20493;-69
2023/10/31 10:10:24;;;;;;;1.50;1.17;;;22.00;59.10;;;;;;5052975;28;21094;-70
2023/10/31 10:12:52;;;;;;;1.20;0.90;;;22.00;59.20;;;;;;5052812;28;20453;-69
2023/10/31 10:15:17;;;;;;;1.20;1.10;;;22.00;59.20;;;;;;5052547;28;20479;-69
2023/10/31 10:17:50;;;;;;;1.90;0.97;;;22.10;59.20;;;;;;5052645;28;20437;-69
2023/10/31 10:20:15;;;;;;;1.30;1.20;;;22.00;59.10;;;;;;5052642;28;20209;-69
2023/10/31 10:22:42;;;;;;;1.33;1.23;;;22.00;59.70;;;;;;5052678;28;20413;-69
2023/10/31 10:25:11;;;;;;;1.47;1.10;;;22.00;59.10;;;;;;5052478;28;20198;-70
2023/10/31 10:27:38;;;;;;;1.30;1.10;;;22.00;59.10;;;;;;5053144;28;20516;-69
2023/10/31 10:30:05;;;;;;;1.77;1.07;;;22.10;59.20;;;;;;5052721;28;20496;-70
2023/10/31 10:32:30;;;;;;;1.77;1.27;;;22.00;59.10;;;;;;5053677;28;20585;-66
2023/10/31 10:34:57;;;;;;;1.23;0.90;;;22.10;59.10;;;;;;5053240;28;20442;-67
2023/10/31 10:37:25;;;;;;;1.53;1.00;;;22.00;59.10;;;;;;5053645;28;20194;-67
2023/10/31 10:39:55;;;;;;;1.20;1.00;;;22.00;59.10;;;;;;5053614;28;20417;-67
2023/10/31 10:42:35;;;;;;;1.50;1.00;;;22.00;59.10;;;;;;5053416;28;20422;-67
2023/10/31 10:45:03;;;;;;;1.10;1.00;;;22.00;59.10;;;;;;5051845;28;20577;-67
2023/10/31 10:47:32;;;;;;;1.20;1.03;;;22.00;59.20;;;;;;5053249;28;20409;-68
2023/10/31 10:50:01;;;;;;;2.23;1.10;;;22.00;59.20;;;;;;5053289;28;20421;-67
2023/10/31 10:52:41;;;;;;;1.87;1.20;;;22.00;59.20;;;;;;5053196;28;20460;-67
2023/10/31 10:55:19;;;;;;;1.00;0.83;;;22.00;59.20;;;;;;5051697;28;20433;-67
2023/10/31 10:57:54;;;;;;;1.10;0.90;;;22.00;59.20;;;;;;5053209;28;20404;-66
2023/10/31 11:00:24;;;;;;;1.03;0.93;;;22.10;59.30;;;;;;5052965;28;20923;-67
2023/10/31 11:02:52;;;;;;;1.20;1.00;;;22.00;59.30;;;;;;5053009;28;20425;-67
2023/10/31 11:05:18;;;;;;;1.27;1.10;;;22.00;59.20;;;;;;5052896;28;20516;-67
2023/10/31 11:07:45;;;;;;;2.60;1.20;;;22.00;59.20;;;;;;5052886;28;20421;-66
2023/10/31 11:10:11;;;;;;;1.27;0.80;;;22.00;59.20;;;;;;5052730;28;20409;-68
2023/10/31 11:12:38;;;;;;;1.50;1.10;;;22.00;59.20;;;;;;5052575;28;20483;-68
2023/10/31 11:15:06;;;;;;;1.10;1.00;;;22.00;59.20;;;;;;5052864;28;20464;-68
2023/10/31 11:17:36;;;;;;;1.33;1.03;;;22.00;59.20;;;;;;5052545;28;20834;-67
2023/10/31 11:20:03;;;;;;;1.10;0.90;;;22.00;59.10;;;;;;5052437;28;20452;-67
2023/10/31 11:22:45;;;;;;;1.23;1.07;;;22.00;59.10;;;;;;5052585;28;20490;-67
2023/10/31 11:25:14;;;;;;;1.43;1.00;;;22.00;59.10;;;;;;5052226;28;20460;-68
2023/10/31 11:27:41;;;;;;;1.13;0.90;;;22.00;59.20;;;;;;5051499;28;20428;-67
2023/10/31 11:30:19;;;;;;;1.37;1.10;;;22.00;59.10;;;;;;5051972;28;20417;-66
2023/10/31 11:32:49;;;;;;;1.40;1.00;;;22.00;59.30;;;;;;5052153;28;20540;-67
2023/10/31 11:35:17;;;;;;;1.07;0.97;;;22.10;59.30;;;;;;5052294;28;20436;-67
2023/10/31 11:37:43;;;;;;;1.43;0.90;;;22.00;59.20;;;;;;5052107;28;20449;-67
2023/10/31 11:40:18;;;;;;;1.30;1.07;;;22.00;59.10;;;;;;5052053;28;20504;-66
2023/10/31 11:42:52;;;;;;;2.50;1.10;;;22.00;59.10;;;;;;5051628;28;20181;-67
2023/10/31 11:45:42;;;;;;;1.10;0.90;;;22.00;59.10;;;;;;5051904;28;20802;-68
2023/10/31 11:48:09;;;;;;;1.10;0.87;;;22.00;59.10;;;;;;5052078;28;20488;-66
2023/10/31 11:50:36;;;;;;;1.40;1.20;;;22.00;59.10;;;;;;5051701;28;20405;-66
2023/10/31 11:53:12;;;;;;;1.30;1.03;;;22.00;59.10;;;;;;5051470;28;20467;-67
2023/10/31 11:55:47;;;;;;;1.70;1.10;;;22.00;59.10;;;;;;5051505;28;20429;-67
2023/10/31 11:58:23;;;;;;;2.50;1.23;;;22.00;59.10;;;;;;5052209;28;20385;-65
2023/10/31 12:00:50;;;;;;;1.20;1.10;;;22.00;59.10;;;;;;5051630;28;20761;-67
2023/10/31 12:03:18;;;;;;;1.10;0.97;;;22.00;59.10;;;;;;5051986;28;20426;-67
2023/10/31 12:05:59;;;;;;;1.07;0.90;;;22.00;59.10;;;;;;5051451;28;20441;-67
2023/10/31 12:08:26;;;;;;;1.50;1.30;;;22.00;59.10;;;;;;5051687;28;20783;-67
2023/10/31 12:10:52;;;;;;;1.50;1.13;;;22.00;59.10;;;;;;5051518;28;20428;-67
2023/10/31 12:13:17;;;;;;;0.97;0.87;;;22.10;59.20;;;;;;5051240;28;20800;-67
2023/10/31 12:15:53;;;;;;;1.40;1.03;;;22.00;59.10;;;;;;5051126;28;20206;-67
2023/10/31 12:18:19;;;;;;;1.60;1.10;;;22.00;59.10;;;;;;5051073;28;20221;-67
2023/10/31 12:20:49;;;;;;;1.30;0.90;;;22.00;59.10;;;;;;5051061;28;20448;-68
2023/10/31 12:23:14;;;;;;;1.10;1.00;;;22.00;59.00;;;;;;5051127;28;20167;-67
2023/10/31 12:25:53;;;;;;;1.20;1.10;;;22.00;59.10;;;;;;5051112;28;20935;-67
2023/10/31 12:28:20;;;;;;;1.50;1.10;;;22.00;59.00;;;;;;5050955;28;20171;-67
2023/10/31 12:30:47;;;;;;;1.40;1.20;;;22.00;59.00;;;;;;5051111;28;20501;-67
2023/10/31 12:33:13;;;;;;;1.20;1.00;;;22.00;59.00;;;;;;5050725;28;20460;-67
2023/10/31 12:35:39;;;;;;;1.27;1.10;;;22.00;59.10;;;;;;5051465;28;20430;-67
2023/10/31 12:38:07;;;;;;;1.37;1.10;;;22.00;59.10;;;;;;5049942;28;20404;-67
2023/10/31 12:40:34;;;;;;;1.47;0.90;;;22.00;59.10;;;;;;5050953;28;20406;-67
2023/10/31 12:43:01;;;;;;;1.10;0.87;;;22.00;59.10;;;;;;5049661;28;20461;-67
2023/10/31 12:45:27;;;;;;;1.90;1.07;;;22.10;59.20;;;;;;5050730;28;20433;-67